Time;durP1;ratioP1;P1;durP2;ratioP2;P2;SDS_P1;SDS_P2;PMS_P1;PMS_P2;Temp;Humidity;BMP_temperature;BMP_pressure;BME280_temperature;BME280_humidity;BME280_pressure;Samples;Min_cycle;Max_cycle;Signal;HPM_P1;HPM_P2
2022/12/15 00:39:12;;;;;;;100.15;70.57;;;179.80;2252.80;;;;;;4976898;28;20449;-60
2022/12/15 00:41:38;;;;;;;141.55;94.50;;;179.70;2252.80;;;;;;4985937;28;20062;-60
2022/12/15 00:44:04;;;;;;;186.05;123.28;;;179.70;1971.20;;;;;;4982962;28;20054;-59
2022/12/15 01:22:06;;;;;;;316.15;210.02;;;179.90;2252.80;;;;;;4974725;28;20025;-60
2022/12/15 01:24:31;;;;;;;293.42;188.77;;;179.80;2252.80;;;;;;4974538;28;20433;-60
2022/12/15 01:26:57;;;;;;;321.98;209.95;;;179.90;2252.80;;;;;;4974458;28;20023;-60
2022/12/15 01:29:23;;;;;;;329.10;210.73;;;179.90;2252.80;;;;;;4973990;28;20106;-59
2022/12/15 01:31:49;;;;;;;293.70;185.88;;;179.90;2252.80;;;;;;4974125;28;20031;-60
2022/12/15 01:34:16;;;;;;;328.45;185.13;;;179.80;2252.80;;;;;;4974166;28;20038;-59
2022/12/15 01:36:41;;;;;;;329.73;189.65;;;179.80;2252.80;;;;;;4973879;28;20035;-60
2022/12/15 01:39:07;;;;;;;294.83;143.45;;;179.90;2252.80;;;;;;4974385;28;20041;-60
2022/12/15 01:41:33;;;;;;;530.50;191.48;;;179.90;2252.80;;;;;;4973791;28;20027;-61
2022/12/15 01:44:21;;;;;;;462.13;158.02;;;179.70;2252.80;;;;;;4973728;28;20085;-61
2022/12/15 01:46:49;;;;;;;592.38;194.85;;;179.70;2252.80;;;;;;4973773;28;20033;-59
2022/12/15 01:49:16;;;;;;;406.35;124.95;;;179.70;2252.80;;;;;;4973967;28;20118;-59
2022/12/15 01:51:45;;;;;;;410.58;135.88;;;179.70;2252.80;;;;;;4974003;28;20079;-59
2022/12/15 01:54:39;;;;;;;346.98;133.63;;;179.70;2252.80;;;;;;4973752;28;20035;-59
2022/12/15 01:57:17;;;;;;;328.95;111.40;;;179.80;2252.80;;;;;;4973801;28;20034;-60
2022/12/15 01:59:49;;;;;;;410.98;149.00;;;179.80;2252.80;;;;;;4973467;28;20141;-60
2022/12/15 02:02:17;;;;;;;345.00;119.97;;;179.80;2252.80;;;;;;4973766;28;20069;-60
2022/12/15 02:04:44;;;;;;;335.90;123.45;;;179.80;2252.80;;;;;;4973366;28;20461;-59
2022/12/15 02:07:15;;;;;;;421.67;158.45;;;179.70;2252.80;;;;;;4973531;28;20035;-60
2022/12/15 02:09:43;;;;;;;337.75;128.07;;;179.90;2252.80;;;;;;4973453;28;20027;-60
2022/12/15 02:12:18;;;;;;;413.27;139.63;;;179.80;2252.80;;;;;;4973588;28;20031;-60
2022/12/15 02:15:08;;;;;;;387.98;123.05;;;179.70;2252.80;;;;;;4973348;28;20043;-60
2022/12/15 02:17:59;;;;;;;631.22;199.90;;;179.60;2252.80;;;;;;4973366;28;20093;-61
2022/12/15 02:20:43;;;;;;;616.22;217.63;;;179.60;2252.80;;;;;;4973308;28;20425;-60
2022/12/15 02:23:33;;;;;;;673.83;256.50;;;179.40;2252.80;;;;;;4973209;28;20084;-61
2022/12/15 02:26:46;;;;;;;427.60;163.15;;;179.40;2252.80;;;;;;4973152;28;20105;-61
2022/12/15 02:29:39;;;;;;;228.98;108.80;;;179.50;2252.80;;;;;;4894272;29;20052;-61
2022/12/15 02:32:05;;;;;;;274.20;114.05;;;179.50;2252.80;;;;;;4894818;29;20033;-60
2022/12/15 02:34:57;;;;;;;342.50;143.48;;;179.60;2252.80;;;;;;4894435;29;20055;-61
2022/12/15 02:37:36;;;;;;;557.42;192.23;;;179.50;2252.80;;;;;;4894020;29;20047;-61
2022/12/15 02:40:05;;;;;;;493.55;166.50;;;179.60;2252.80;;;;;;4894609;29;20108;-61
2022/12/15 02:42:32;;;;;;;353.73;134.40;;;179.60;2252.80;;;;;;4894568;29;20116;-61
2022/12/15 02:45:11;;;;;;;417.75;159.30;;;179.60;2252.80;;;;;;4903311;29;20432;-61
2022/12/15 02:48:01;;;;;;;596.33;207.32;;;179.60;2252.80;;;;;;4913384;29;20020;-58
2022/12/15 02:51:16;;;;;;;487.80;173.80;;;179.60;2252.80;;;;;;4913423;29;20028;-58
2022/12/15 02:54:02;;;;;;;411.52;144.75;;;179.50;2252.80;;;;;;4912464;29;20052;-57
2022/12/15 02:56:45;;;;;;;388.58;126.80;;;179.50;2252.80;;;;;;4912670;29;20044;-58
2022/12/15 02:59:23;;;;;;;359.77;118.25;;;179.60;2252.80;;;;;;4912649;29;20135;-58
2022/12/15 03:01:56;;;;;;;434.48;156.63;;;179.60;2124.80;;;;;;4898254;29;20617;-58
2022/12/15 03:04:23;;;;;;;536.13;173.00;;;179.60;2252.80;;;;;;4912659;29;20039;-58
2022/12/15 03:06:57;;;;;;;363.52;123.90;;;179.60;2252.80;;;;;;4985587;28;20018;-59
2022/12/15 03:09:22;;;;;;;;;;;179.60;2252.80;;;;;;4992015;28;20076;-59
2022/12/15 03:11:48;;;;;;;477.05;148.18;;;179.40;2252.80;;;;;;4991812;28;19910;-58
2022/12/15 03:14:14;;;;;;;419.08;124.10;;;179.30;2252.80;;;;;;4991509;28;20058;-58
2022/12/15 03:16:39;;;;;;;492.27;152.93;;;154.40;2252.80;;;;;;4991408;28;20073;-59
2022/12/15 03:19:05;;;;;;;448.58;147.23;;;154.20;2252.80;;;;;;4991616;28;20026;-57
2022/12/15 03:21:31;;;;;;;274.98;101.00;;;154.10;2252.80;;;;;;4991748;28;20030;-59
2022/12/15 03:23:56;;;;;;;220.80;76.07;;;154.20;2252.80;;;;;;4992519;28;20030;-59
2022/12/15 03:26:22;;;;;;;208.05;76.43;;;154.20;2252.80;;;;;;4992219;28;20026;-60
2022/12/15 03:28:48;;;;;;;440.33;138.23;;;154.40;2252.80;;;;;;4992371;28;20031;-60
2022/12/15 03:31:14;;;;;;;325.85;112.30;;;154.30;2252.80;;;;;;4974446;28;20034;-58
2022/12/15 03:33:39;;;;;;;328.65;107.95;;;154.20;2252.80;;;;;;4991085;28;20153;-58
2022/12/15 03:36:06;;;;;;;272.23;99.60;;;154.10;2252.80;;;;;;4980092;28;20022;-59
2022/12/15 03:38:31;;;;;;;316.05;107.90;;;154.00;2252.80;;;;;;4972222;28;20035;-61
2022/12/15 03:40:57;;;;;;;143.85;62.38;;;154.00;2252.80;;;;;;4972033;28;20034;-61
2022/12/15 03:43:23;;;;;;;165.07;65.43;;;154.10;2252.80;;;;;;4971608;28;20053;-61
2022/12/15 03:45:48;;;;;;;316.52;98.10;;;154.30;2252.80;;;;;;4971669;28;20065;-61
2022/12/15 03:48:14;;;;;;;156.75;59.55;;;154.30;2252.80;;;;;;4971909;28;20080;-61
2022/12/15 03:50:40;;;;;;;171.88;68.63;;;154.30;2252.80;;;;;;4971513;28;20026;-62
2022/12/15 03:53:05;;;;;;;153.00;63.20;;;154.20;2252.80;;;;;;4971863;28;20030;-61
2022/12/15 03:55:31;;;;;;;108.65;50.40;;;154.40;2252.80;;;;;;4971594;28;20432;-62
2022/12/15 03:57:58;;;;;;;119.72;56.03;;;154.40;2252.80;;;;;;4971161;28;20089;-61
2022/12/15 04:00:24;;;;;;;310.45;98.60;;;154.40;2252.80;;;;;;4971237;28;20125;-61
2022/12/15 04:02:50;;;;;;;172.02;66.18;;;154.40;2252.80;;;;;;4971453;28;20031;-61
2022/12/15 04:05:31;;;;;;;345.35;118.60;;;154.30;2252.80;;;;;;4971538;28;20042;-61
2022/12/15 04:07:58;;;;;;;120.90;53.63;;;154.30;2252.80;;;;;;4971355;28;20038;-61
2022/12/15 04:10:26;;;;;;;135.52;66.78;;;154.40;2252.80;;;;;;4971295;28;20088;-59
2022/12/15 04:13:06;;;;;;;359.63;117.75;;;154.40;2252.80;;;;;;4971107;28;20735;-59
2022/12/15 04:15:33;;;;;;;125.03;57.65;;;154.40;2252.80;;;;;;4971195;28;20478;-60
2022/12/15 04:18:02;;;;;;;231.57;84.28;;;154.40;2252.80;;;;;;4971281;28;20030;-59
2022/12/15 04:20:28;;;;;;;229.05;84.93;;;154.20;1971.20;;;;;;4971583;28;20031;-60
2022/12/15 04:22:55;;;;;;;241.43;86.78;;;154.10;2252.80;;;;;;4971316;28;20027;-59
2022/12/15 05:31:57;;;;;;;90.35;37.80;;;154.00;2252.80;;;;;;4974529;28;20038;-59
2022/12/15 05:34:28;;;;;;;108.78;44.22;;;153.80;2252.80;;;;;;4973960;28;20097;-58
2022/12/15 05:36:55;;;;;;;129.88;46.65;;;153.90;2252.80;;;;;;4974227;28;20397;-58
2022/12/15 05:39:21;;;;;;;192.27;56.53;;;153.90;2252.80;;;;;;4973763;28;20054;-59
2022/12/15 05:41:48;;;;;;;179.23;53.25;;;153.90;2252.80;;;;;;4973906;28;20019;-58
2022/12/15 05:44:14;;;;;;;92.03;34.28;;;153.70;2252.80;;;;;;4973964;28;20034;-59
2022/12/15 05:46:39;;;;;;;137.48;55.88;;;153.60;2252.80;;;;;;4973803;28;20031;-59
2022/12/15 05:49:10;;;;;;;89.32;35.22;;;153.80;2252.80;;;;;;4973917;28;20481;-59
2022/12/15 05:51:39;;;;;;;123.40;43.22;;;153.90;2252.80;;;;;;4973816;28;20073;-58
2022/12/15 05:54:06;;;;;;;192.35;51.63;;;153.80;2252.80;;;;;;4984313;28;20038;-59
2022/12/15 05:56:31;;;;;;;99.80;41.67;;;153.80;2252.80;;;;;;4975576;28;20401;-58
2022/12/15 05:58:57;;;;;;;238.88;70.20;;;153.90;2252.80;;;;;;4992759;28;20061;-59
2022/12/15 06:01:24;;;;;;;242.43;77.55;;;153.80;2252.80;;;;;;4992842;28;20096;-59
2022/12/15 06:03:50;;;;;;;267.17;103.38;;;153.80;2252.80;;;;;;4992927;28;20101;-59
2022/12/15 06:06:16;;;;;;;302.85;94.20;;;153.90;2252.80;;;;;;4993137;28;20031;-59
2022/12/15 06:08:42;;;;;;;119.53;49.13;;;154.00;2252.80;;;;;;4992801;28;20034;-59
2022/12/15 06:11:13;;;;;;;154.15;43.97;;;153.90;2252.80;;;;;;4986856;28;20035;-60
2022/12/15 06:13:40;;;;;;;119.13;51.20;;;154.00;2252.80;;;;;;4982365;28;20109;-59
2022/12/15 06:16:14;;;;;;;168.77;56.08;;;154.10;2252.80;;;;;;4983575;28;20041;-58
2022/12/15 06:18:43;;;;;;;302.95;91.63;;;154.10;2252.80;;;;;;4981579;28;20414;-59
2022/12/15 06:21:11;;;;;;;223.75;61.55;;;153.80;2150.40;;;;;;4981600;28;20425;-59
2022/12/15 06:23:38;;;;;;;348.40;72.88;;;153.80;2252.80;;;;;;4982729;28;20030;-59
2022/12/15 06:26:20;;;;;;;255.23;63.35;;;153.70;2252.80;;;;;;4986277;28;20026;-60
2022/12/15 06:28:47;;;;;;;104.75;38.80;;;153.60;2252.80;;;;;;4993499;28;20065;-59
2022/12/15 06:31:14;;;;;;;128.25;39.90;;;153.60;2252.80;;;;;;4991734;28;20114;-60
2022/12/15 06:33:39;;;;;;;324.55;68.82;;;153.70;2252.80;;;;;;4992637;28;20039;-62
2022/12/15 06:36:08;;;;;;;392.73;89.30;;;153.70;2252.80;;;;;;4992600;28;20018;-60
2022/12/15 06:38:35;;;;;;;260.45;66.40;;;128.90;2252.80;;;;;;4992396;28;20030;-59
2022/12/15 06:41:04;;;;;;;161.40;44.70;;;128.80;2252.80;;;;;;4992300;28;20385;-59
2022/12/15 06:43:31;;;;;;;150.45;51.33;;;128.80;2252.80;;;;;;4992235;28;20058;-59
2022/12/15 06:45:58;;;;;;;200.60;62.00;;;153.70;2252.80;;;;;;4992279;28;20026;-59
2022/12/15 06:48:24;;;;;;;189.60;57.08;;;153.70;2252.80;;;;;;4992190;28;20347;-60
2022/12/15 06:50:50;;;;;;;112.47;44.78;;;153.80;2252.80;;;;;;4991917;28;20154;-58
2022/12/15 06:53:18;;;;;;;248.73;76.43;;;154.00;2252.80;;;;;;4992126;28;20393;-58
2022/12/15 06:55:45;;;;;;;137.20;48.92;;;153.90;2252.80;;;;;;4992115;28;20022;-58
2022/12/15 06:58:11;;;;;;;180.75;64.22;;;153.80;2022.40;;;;;;4991601;28;20049;-59
2022/12/15 07:00:39;;;;;;;150.05;55.10;;;153.90;2150.40;;;;;;4991604;28;20037;-59
2022/12/15 07:03:14;;;;;;;342.02;96.57;;;153.70;2252.80;;;;;;4991894;28;20045;-59
2022/12/15 07:05:39;;;;;;;130.30;53.80;;;128.80;2252.80;;;;;;4991685;28;20026;-59
2022/12/15 07:08:05;;;;;;;256.38;84.32;;;128.80;2252.80;;;;;;4988816;28;20488;-59
2022/12/15 07:10:31;;;;;;;159.63;64.75;;;128.90;2252.80;;;;;;4975534;28;20045;-60
2022/12/15 07:12:57;;;;;;;225.05;109.50;;;153.90;2252.80;;;;;;4980457;28;20026;-60
2022/12/15 07:15:23;;;;;;;274.88;117.32;;;153.80;2252.80;;;;;;4979195;28;20037;-60
2022/12/15 07:17:49;;;;;;;203.73;90.53;;;154.00;2252.80;;;;;;4972237;28;20027;-59
2022/12/15 07:20:16;;;;;;;396.80;161.10;;;154.20;2252.80;;;;;;4972290;28;20027;-58
2022/12/15 07:22:41;;;;;;;321.63;101.63;;;154.50;2022.40;;;;;;4972030;28;20031;-58
2022/12/15 07:25:08;;;;;;;308.45;112.60;;;154.50;2252.80;;;;;;4972148;28;20030;-60
2022/12/15 07:27:34;;;;;;;369.60;137.63;;;154.40;2252.80;;;;;;4973355;28;20039;-58
2022/12/15 07:29:59;;;;;;;160.25;78.82;;;154.40;2252.80;;;;;;4991217;28;20033;-58
2022/12/15 07:32:25;;;;;;;336.95;99.32;;;154.40;2252.80;;;;;;4991358;28;20034;-58
2022/12/15 07:34:51;;;;;;;367.58;116.50;;;154.40;2252.80;;;;;;4991061;28;20065;-58
2022/12/15 07:37:17;;;;;;;413.05;118.97;;;154.20;2252.80;;;;;;4991227;28;20026;-58
2022/12/15 07:39:42;;;;;;;425.95;135.40;;;154.10;2099.20;;;;;;4991106;28;20030;-58
2022/12/15 07:42:08;;;;;;;430.85;128.32;;;154.00;2252.80;;;;;;4991257;28;20101;-57
2022/12/15 07:44:34;;;;;;;442.55;126.53;;;154.20;2252.80;;;;;;4991026;28;20038;-59
2022/12/15 07:46:59;;;;;;;298.58;84.13;;;154.30;2252.80;;;;;;4991356;28;20064;-59
2022/12/15 07:49:25;;;;;;;373.65;126.05;;;154.10;2252.80;;;;;;4991180;28;20070;-58
2022/12/15 07:51:51;;;;;;;368.50;130.85;;;154.10;2252.80;;;;;;4990945;28;20034;-57
2022/12/15 07:54:16;;;;;;;328.73;113.60;;;154.10;2252.80;;;;;;4990967;28;20038;-57
2022/12/15 07:56:42;;;;;;;407.52;151.63;;;154.10;2252.80;;;;;;4990873;28;20027;-60
2022/12/15 07:59:08;;;;;;;394.27;109.57;;;154.40;2252.80;;;;;;4988295;28;20054;-58
2022/12/15 08:01:34;;;;;;;394.75;94.75;;;128.90;2252.80;;;;;;4989746;28;20469;-57
2022/12/15 08:04:00;;;;;;;258.10;90.05;;;154.40;2252.80;;;;;;4991394;28;20076;-58
2022/12/15 08:06:26;;;;;;;209.73;84.68;;;179.30;2252.80;;;;;;4991134;28;20080;-58
2022/12/15 08:08:52;;;;;;;199.30;80.88;;;179.30;2252.80;;;;;;4977764;28;20035;-57
2022/12/15 08:11:20;;;;;;;119.28;59.65;;;179.40;2252.80;;;;;;4976787;28;20034;-57
2022/12/15 08:13:46;;;;;;;145.65;59.95;;;179.50;2252.80;;;;;;4972830;28;20417;-58
2022/12/15 08:16:12;;;;;;;335.70;127.57;;;179.80;2252.80;;;;;;4979982;28;20435;-58
2022/12/15 08:18:38;;;;;;;302.90;103.18;;;179.70;2252.80;;;;;;4981720;28;20054;-56
2022/12/15 08:21:07;;;;;;;130.85;61.60;;;179.70;2252.80;;;;;;4980302;28;20053;-57
2022/12/15 08:23:33;;;;;;;219.40;73.22;;;179.70;2252.80;;;;;;4979943;28;20033;-58
2022/12/15 08:26:07;;;;;;;166.77;76.70;;;179.80;2252.80;;;;;;4981353;28;20497;-58
2022/12/15 08:28:35;;;;;;;289.77;98.50;;;179.80;2252.80;;;;;;4980901;28;20058;-58
2022/12/15 08:31:06;;;;;;;167.73;77.22;;;180.00;2252.80;;;;;;4976248;28;20087;-64
2022/12/15 08:33:32;;;;;;;206.30;87.07;;;180.00;2252.80;;;;;;4981935;28;20042;-58
2022/12/15 08:36:01;;;;;;;225.25;94.22;;;180.00;2252.80;;;;;;4971350;28;20026;-58
2022/12/15 08:38:27;;;;;;;244.30;90.65;;;180.10;2252.80;;;;;;4971197;28;20026;-58
2022/12/15 08:40:53;;;;;;;182.77;76.97;;;180.10;2252.80;;;;;;4971075;28;20058;-61
2022/12/15 08:43:18;;;;;;;184.23;75.78;;;204.80;2252.80;;;;;;4970747;28;20047;-58
2022/12/15 08:45:44;;;;;;;215.85;81.55;;;204.90;2252.80;;;;;;4968022;28;20026;-58
2022/12/15 08:48:10;;;;;;;192.32;76.97;;;204.90;2252.80;;;;;;4969379;28;20023;-58
2022/12/15 08:50:35;;;;;;;250.65;87.15;;;205.00;2252.80;;;;;;4969624;28;20015;-58
2022/12/15 08:53:01;;;;;;;229.98;107.88;;;180.10;2252.80;;;;;;4969019;28;20027;-58
2022/12/15 08:55:27;;;;;;;138.63;68.88;;;204.80;2252.80;;;;;;4971764;28;20054;-62
2022/12/15 08:57:53;;;;;;;236.23;94.10;;;204.80;2252.80;;;;;;4973089;28;20482;-58
2022/12/15 09:00:19;;;;;;;232.85;90.82;;;180.00;2252.80;;;;;;4972363;28;20039;-58
2022/12/15 09:02:45;;;;;;;160.68;65.25;;;179.90;2252.80;;;;;;4973167;28;20038;-57
2022/12/15 09:05:10;;;;;;;202.63;78.60;;;180.00;2252.80;;;;;;4972951;28;20105;-58
2022/12/15 09:07:37;;;;;;;154.00;68.80;;;180.10;2252.80;;;;;;4973094;28;20417;-57
2022/12/15 09:10:03;;;;;;;207.00;79.32;;;204.80;2252.80;;;;;;4972949;28;20027;-56
2022/12/15 09:12:29;;;;;;;253.82;90.20;;;205.00;2252.80;;;;;;4972454;28;20533;-59
2022/12/15 09:14:54;;;;;;;396.98;192.85;;;205.10;2252.80;;;;;;4972938;28;20129;-57
2022/12/15 09:17:20;;;;;;;299.27;131.23;;;205.10;2252.80;;;;;;4972805;28;20037;-59
2022/12/15 09:19:46;;;;;;;254.18;94.47;;;205.10;2252.80;;;;;;4972925;28;20027;-58
2022/12/15 09:22:12;;;;;;;257.05;101.50;;;205.10;2252.80;;;;;;4972765;28;20699;-58
2022/12/15 09:24:37;;;;;;;296.52;96.85;;;205.10;2252.80;;;;;;4972472;28;20461;-58
2022/12/15 09:27:03;;;;;;;290.67;117.70;;;204.80;2252.80;;;;;;4972513;28;20077;-57
2022/12/15 09:29:29;;;;;;;250.10;114.80;;;204.90;2252.80;;;;;;4972661;28;20038;-58
2022/12/15 09:31:54;;;;;;;305.33;178.30;;;205.20;2252.80;;;;;;4974684;28;20050;-58
2022/12/15 09:34:20;;;;;;;254.73;93.25;;;205.30;2252.80;;;;;;4974212;28;20030;-58
2022/12/15 09:36:46;;;;;;;181.73;77.32;;;205.30;2252.80;;;;;;4974214;28;20551;-58
2022/12/15 09:39:11;;;;;;;204.13;122.78;;;205.30;2252.80;;;;;;4974190;28;20401;-58
2022/12/15 09:41:39;;;;;;;123.88;65.15;;;205.50;2252.80;;;;;;4974297;28;20453;-59
2022/12/15 09:44:17;;;;;;;222.27;76.43;;;205.40;2252.80;;;;;;4974225;28;20037;-64
2022/12/15 09:47:11;;;;;;;201.32;81.32;;;205.30;2252.80;;;;;;4973897;28;20027;-59
2022/12/15 09:49:57;;;;;;;172.48;71.28;;;205.30;2252.80;;;;;;4974576;28;20118;-57
2022/12/15 09:52:42;;;;;;;153.95;77.55;;;205.40;2252.80;;;;;;4973706;28;20045;-58
2022/12/15 09:55:19;;;;;;;171.40;86.53;;;205.50;2252.80;;;;;;4973779;28;20478;-57
2022/12/15 09:58:14;;;;;;;177.77;83.15;;;205.60;2252.80;;;;;;4973810;28;20027;-57
2022/12/15 10:00:55;;;;;;;171.13;84.82;;;230.40;2252.80;;;;;;4943322;28;20053;-58
2022/12/15 10:03:41;;;;;;;176.50;80.93;;;205.70;2252.80;;;;;;4973561;28;20031;-58
2022/12/15 10:06:09;;;;;;;187.65;82.97;;;230.40;2252.80;;;;;;4959943;28;20078;-59
2022/12/15 10:08:56;;;;;;;271.23;153.68;;;230.40;2252.80;;;;;;4973567;28;20034;-58
2022/12/15 10:11:31;;;;;;;184.30;82.50;;;205.60;2252.80;;;;;;4973299;28;20485;-58
2022/12/15 10:14:03;;;;;;;278.45;142.50;;;205.60;2252.80;;;;;;4973403;28;20081;-58
2022/12/15 10:16:58;;;;;;;229.50;119.73;;;205.70;2252.80;;;;;;4973316;28;20027;-59
2022/12/15 10:19:45;;;;;;;345.83;136.18;;;205.50;2252.80;;;;;;4973126;28;20082;-58
2022/12/15 10:22:22;;;;;;;323.15;132.77;;;205.00;2252.80;;;;;;4973135;28;20018;-58
2022/12/15 10:24:48;;;;;;;462.80;162.60;;;204.90;2252.80;;;;;;4973449;28;20050;-58
2022/12/15 10:27:35;;;;;;;330.02;155.30;;;205.20;2252.80;;;;;;4972890;28;20098;-57
2022/12/15 10:30:07;;;;;;;291.30;136.57;;;205.30;2252.80;;;;;;4973095;28;20039;-58
2022/12/15 10:32:51;;;;;;;302.00;142.20;;;205.50;2252.80;;;;;;4972764;28;20023;-59
2022/12/15 10:35:26;;;;;;;;;;;205.50;2252.80;;;;;;4973297;28;20095;-60
2022/12/15 10:38:03;;;;;;;416.35;163.02;;;205.20;2252.80;;;;;;4955409;28;19933;-59
2022/12/15 10:40:57;;;;;;;472.70;195.63;;;204.90;2252.80;;;;;;4973094;28;20027;-58
2022/12/15 10:43:24;;;;;;;612.47;222.68;;;205.00;2252.80;;;;;;4972708;28;20039;-58
2022/12/15 10:46:02;;;;;;;567.60;219.35;;;205.40;2252.80;;;;;;4972695;28;20074;-59
2022/12/15 10:48:27;;;;;;;389.13;181.52;;;205.60;2252.80;;;;;;4972866;28;20030;-58
2022/12/15 10:51:19;;;;;;;381.92;164.52;;;205.60;2252.80;;;;;;4972667;28;20027;-59
2022/12/15 10:54:03;;;;;;;416.88;172.02;;;205.70;2252.80;;;;;;4972842;28;20039;-58
2022/12/15 10:56:30;;;;;;;;;;;205.40;2252.80;;;;;;4973213;28;20107;-57
2022/12/15 10:59:00;;;;;;;381.50;207.35;;;205.60;2252.80;;;;;;4972297;28;19925;-58
2022/12/15 11:01:28;;;;;;;333.08;177.77;;;230.70;2252.80;;;;;;4972627;28;20385;-58
2022/12/15 11:03:55;;;;;;;282.40;144.30;;;230.50;2252.80;;;;;;4972196;28;20085;-61
2022/12/15 11:06:25;;;;;;;290.27;165.25;;;230.70;2252.80;;;;;;4972353;28;20054;-58
2022/12/15 11:08:55;;;;;;;291.45;149.07;;;230.80;2252.80;;;;;;4972314;28;20023;-57
2022/12/15 11:14:41;;;;;;;261.17;147.15;;;230.90;2252.80;;;;;;4972803;28;20101;-61
2022/12/15 11:17:06;;;;;;;260.45;153.65;;;231.20;2252.80;;;;;;4971901;28;20027;-59
2022/12/15 11:19:39;;;;;;;248.05;145.65;;;231.20;2252.80;;;;;;4972187;28;20491;-58
2022/12/15 11:22:17;;;;;;;302.38;177.45;;;231.30;2252.80;;;;;;4972214;28;20027;-57
2022/12/15 11:25:23;;;;;;;275.38;166.00;;;230.90;2252.80;;;;;;4972142;28;20046;-58
2022/12/15 11:27:54;;;;;;;259.45;150.75;;;230.90;2252.80;;;;;;4965676;28;20031;-57
2022/12/15 11:30:23;;;;;;;254.75;153.15;;;231.00;2252.80;;;;;;4971759;28;20070;-58
2022/12/15 11:32:56;;;;;;;273.13;148.65;;;230.90;2252.80;;;;;;4972074;28;20037;-58
2022/12/15 11:35:43;;;;;;;250.32;151.05;;;230.90;2252.80;;;;;;4971711;28;20070;-58
2022/12/15 11:38:44;;;;;;;267.50;157.13;;;231.10;2252.80;;;;;;4972280;28;20033;-58
2022/12/15 11:41:21;;;;;;;256.33;157.23;;;230.80;2252.80;;;;;;4893344;29;20041;-60
2022/12/15 11:44:17;;;;;;;261.67;155.18;;;230.80;2252.80;;;;;;4893513;29;20032;-58
2022/12/15 11:46:52;;;;;;;257.63;151.30;;;230.60;2252.80;;;;;;4893187;29;20052;-58
2022/12/15 11:49:56;;;;;;;333.63;224.63;;;205.60;2252.80;;;;;;4893381;29;20032;-57
2022/12/15 11:53:00;;;;;;;258.27;157.93;;;205.50;2252.80;;;;;;4874634;29;20449;-58
2022/12/15 11:55:41;;;;;;;306.33;191.00;;;205.50;2252.80;;;;;;4871580;29;20049;-57
2022/12/15 11:58:31;;;;;;;290.40;179.75;;;205.60;2252.80;;;;;;4874489;29;20059;-58
2022/12/15 12:01:06;;;;;;;301.63;200.02;;;205.40;2252.80;;;;;;4874571;29;20055;-57
2022/12/15 12:03:59;;;;;;;247.18;155.00;;;205.40;2252.80;;;;;;4874701;29;20051;-58
2022/12/15 12:06:37;;;;;;;237.90;152.35;;;205.30;2252.80;;;;;;4874747;29;20029;-58
2022/12/15 12:09:26;;;;;;;244.23;154.45;;;205.40;2252.80;;;;;;4873927;29;20041;-64
2022/12/15 12:12:15;;;;;;;233.60;143.35;;;205.40;2252.80;;;;;;4874421;29;20128;-63
2022/12/15 12:15:05;;;;;;;220.60;139.38;;;205.50;2252.80;;;;;;4874308;29;20037;-60
2022/12/15 12:17:44;;;;;;;189.38;116.85;;;205.30;2252.80;;;;;;4885865;29;20048;-63
2022/12/15 12:20:27;;;;;;;172.75;104.50;;;205.20;2252.80;;;;;;4911825;29;20035;-58
2022/12/15 12:23:11;;;;;;;183.75;112.70;;;205.40;2252.80;;;;;;4911725;29;20444;-64
2022/12/15 12:25:46;;;;;;;172.93;106.00;;;205.50;2252.80;;;;;;4912013;29;20064;-65
2022/12/15 12:28:23;;;;;;;178.68;108.97;;;205.20;2252.80;;;;;;4918589;28;20119;-57
2022/12/15 12:30:48;;;;;;;148.45;101.00;;;205.40;2252.80;;;;;;4974065;28;20062;-62
2022/12/15 12:33:35;;;;;;;161.60;103.75;;;205.50;2252.80;;;;;;4975084;28;20406;-57
2022/12/15 12:36:12;;;;;;;137.88;85.75;;;205.60;2252.80;;;;;;4975522;28;20031;-59
2022/12/15 12:38:48;;;;;;;139.30;92.07;;;205.50;2252.80;;;;;;4975750;28;20030;-58
2022/12/15 12:41:34;;;;;;;130.20;81.75;;;205.60;2252.80;;;;;;4975052;28;20448;-58
2022/12/15 12:44:08;;;;;;;133.07;81.22;;;230.40;2252.80;;;;;;4975013;28;20386;-58
2022/12/15 12:46:42;;;;;;;128.95;80.80;;;230.50;2252.80;;;;;;4974981;28;20097;-58
2022/12/15 12:49:30;;;;;;;121.22;73.93;;;230.60;2252.80;;;;;;4975657;28;20023;-58
2022/12/15 12:51:58;;;;;;;136.00;86.35;;;205.70;2252.80;;;;;;4975338;28;20533;-61
2022/12/15 12:54:36;;;;;;;137.80;87.43;;;230.40;2252.80;;;;;;4974943;28;20042;-59
2022/12/15 12:57:28;;;;;;;125.60;76.18;;;205.70;2252.80;;;;;;4975324;28;20054;-58
2022/12/15 13:00:17;;;;;;;103.90;64.88;;;230.50;2252.80;;;;;;4968873;28;20128;-58
2022/12/15 13:03:19;;;;;;;140.02;86.93;;;230.40;2252.80;;;;;;4974355;28;20031;-58
2022/12/15 13:05:48;;;;;;;76.78;48.72;;;230.50;2252.80;;;;;;4896394;29;20036;-61
2022/12/15 13:08:13;;;;;;;190.50;114.03;;;230.40;2252.80;;;;;;4896284;29;20521;-58
2022/12/15 13:10:45;;;;;;;152.02;97.68;;;230.50;2252.80;;;;;;4896149;29;20040;-58
2022/12/15 13:13:29;;;;;;;185.15;106.07;;;230.50;2252.80;;;;;;4895868;29;20028;-58
2022/12/15 13:16:16;;;;;;;200.90;122.05;;;230.70;2252.80;;;;;;4896048;29;20602;-58
2022/12/15 13:19:02;;;;;;;140.73;96.53;;;230.90;2252.80;;;;;;4895757;29;20033;-66
2022/12/15 13:21:43;;;;;;;150.13;102.18;;;230.90;2252.80;;;;;;4901220;29;20037;-58
2022/12/15 13:24:40;;;;;;;195.55;127.28;;;230.90;2252.80;;;;;;4901176;29;20888;-57
2022/12/15 13:27:08;;;;;;;138.65;93.47;;;230.80;2252.80;;;;;;4896074;29;20032;-58
2022/12/15 13:29:36;;;;;;;118.75;82.03;;;230.70;2252.80;;;;;;4895892;29;20399;-58
2022/12/15 13:32:02;;;;;;;147.80;101.38;;;230.70;2252.80;;;;;;4895780;29;20033;-58
2022/12/15 13:34:37;;;;;;;164.05;112.32;;;230.80;2252.80;;;;;;4895139;29;20396;-57
2022/12/15 13:37:25;;;;;;;151.32;112.30;;;230.80;2252.80;;;;;;4895608;29;20123;-58
2022/12/15 13:39:55;;;;;;;146.57;104.13;;;230.90;2252.80;;;;;;4895547;29;20029;-57
2022/12/15 13:42:25;;;;;;;139.40;94.47;;;230.90;2252.80;;;;;;4941399;28;20039;-58
2022/12/15 13:44:56;;;;;;;209.32;114.65;;;230.90;2252.80;;;;;;4973785;28;20050;-58
2022/12/15 13:47:26;;;;;;;128.88;87.45;;;230.90;2252.80;;;;;;4983360;28;20069;-58
2022/12/15 13:50:25;;;;;;;149.80;94.25;;;230.90;2252.80;;;;;;4986273;28;20216;-64
2022/12/15 13:52:53;;;;;;;129.38;90.07;;;230.90;2252.80;;;;;;4981803;28;20090;-57
2022/12/15 13:55:24;;;;;;;131.95;89.90;;;230.80;2252.80;;;;;;4981844;28;20390;-63
2022/12/15 13:58:02;;;;;;;151.30;95.70;;;230.70;2252.80;;;;;;4983770;28;20026;-57
2022/12/15 14:00:28;;;;;;;154.20;99.65;;;230.60;2252.80;;;;;;4982295;28;20551;-58
2022/12/15 14:03:10;;;;;;;157.23;94.18;;;230.50;2252.80;;;;;;4987575;28;20468;-58
2022/12/15 14:05:38;;;;;;;196.90;136.60;;;205.70;2252.80;;;;;;4993194;28;20519;-58
2022/12/15 14:08:11;;;;;;;165.13;117.38;;;230.40;2252.80;;;;;;4992859;28;20030;-58
2022/12/15 14:10:42;;;;;;;189.35;127.20;;;230.60;2252.80;;;;;;4993269;28;20030;-58
2022/12/15 14:13:31;;;;;;;240.10;159.77;;;230.50;2252.80;;;;;;4992937;28;20527;-58
2022/12/15 14:16:20;;;;;;;275.25;180.50;;;230.40;2252.80;;;;;;4992963;28;20101;-57
2022/12/15 14:19:02;;;;;;;296.55;194.52;;;205.70;2252.80;;;;;;4978935;28;20027;-62
2022/12/15 14:21:29;;;;;;;246.00;159.73;;;205.60;2252.80;;;;;;4978459;28;20073;-64
2022/12/15 14:23:56;;;;;;;251.23;170.50;;;205.60;2252.80;;;;;;4980737;28;20030;-58
2022/12/15 14:26:30;;;;;;;243.25;164.02;;;205.60;2252.80;;;;;;4980527;28;20027;-59
2022/12/15 14:29:02;;;;;;;266.02;171.68;;;205.50;2252.80;;;;;;4981800;28;20049;-63
2022/12/15 14:31:29;;;;;;;235.75;151.27;;;205.60;2252.80;;;;;;4981213;28;20033;-64
2022/12/15 14:34:01;;;;;;;243.48;152.02;;;205.50;2252.80;;;;;;4979617;28;20066;-62
2022/12/15 14:36:27;;;;;;;240.45;158.13;;;205.50;2252.80;;;;;;4980440;28;20019;-58